Oceanport, NJ

8:14 AM EDT on August 28, 2014 (GMT -0400)
Oceanport | Change Station
CLOSE
Current Station
Personal Weather Station
Location: Oceanport, NJ
Elevation: 20 ft
Nearby Weather Stations
Active Advisory: Coastal Hazard Statement

Elev 20 ft 40.31 °N, 74.03 °W | Updated 1 second ago

Clear
Clear
70.9 °F
Feels Like 75 °F
N
2.9
Wind Variable Wind from NW
Gusts 7.0 mph

Today
High -- | Low -- °F
--% Chance of Precip.
Yesterday
High -- | Low -- °F
Precip. -- in
6:19 AM 7:34 PM
Waxing Crescent, 8% visible
Pressure 29.89 in
Visibility 10.0 miles
Clouds Clear
Heat Index 75 °F
Dew Point 60 °F
Humidity 68%
Rainfall 0.00 in
Snow Depth Not available.
UV 1 out of 12
Pollen 9.50 out of 12
Air Quality Not available.
Flu Activity Not available.
METAR KBLM 281155Z AUTO 33012G15KT 10SM CLR 21/13 A2989 RMK AO1 10230 20210 52014

More Conditions Fewer Conditions

Pressure 29.89 in
Visibility 10.0 miles
Clouds Clear
Heat Index 75 °F
Dew Point 60 °F
Humidity 68%
Rainfall 0.00 in
Snow Depth Not available.
UV 1 out of 12
Pollen 9.50 out of 12
Air Quality Not available.
Flu Activity Not available.
METAR KBLM 281155Z AUTO 33012G15KT 10SM CLR 21/13 A2989 RMK AO1 10230 20210 52014

More Conditions Fewer Conditions

10-Day Weather Forecast

Almanac

Astronomy

Aug. 28, 2014 Rise Set
Actual Time 6:19 AM EDT 7:34 PM EDT
Civil Twilight 5:51 AM EDT 8:02 PM EDT
Nautical Twilight 5:17 AM EDT 8:35 PM EDT
Astronomical Twilight 4:42 AM EDT 9:11 PM EDT
Moon 9:10 AM EDT 8:56 PM EDT
Length of Visible Light 14h 10m
Length of Day
13h 14m
Tomorrow will be 2m 32s shorter.
Waxing Crescent, 8% of the Moon is Illuminated
Today
Waxing Crescent
Sep 2
First Quarter
Sep 8
Full
Sep 15
Last Quarter
Sep 24
New

Today's Extremes

State Highs State Lows

Community

WunderPhotos

Upload Photos

1,747,932 photos uploaded!

Nearby

Snow Depth

Station Depth Elevation
No new snow has been reported.

Earthquake Activity

City Distance Mag. Time & Date
No recent earthquake activity has been reported nearby.
Minimum magnitude displayed is 2.5.

Coastal Water Temperatures

Place Temperature
Sandy Hook, NJ 77.0 °F
The Battery, NY 75.0 °F

Nearby Weather Stations